createdAt,value
2023-04-07T00:01:24.580Z,24.30
2023-04-07T00:06:27.568Z,22.40
2023-04-07T00:11:30.439Z,20.80
2023-04-07T00:16:33.237Z,25.60
2023-04-07T00:21:36.077Z,24.30
2023-04-07T00:26:38.915Z,23.30
2023-04-07T00:31:41.867Z,19.40
2023-04-07T00:36:44.852Z,20.50
2023-04-07T00:41:48.360Z,21.10
2023-04-07T00:46:51.564Z,21.60
2023-04-07T00:51:58.572Z,20.70
2023-04-07T00:57:01.817Z,20.00
2023-04-07T01:02:22.125Z,22.60
2023-04-07T01:07:35.016Z,15.30
2023-04-07T01:13:01.560Z,16.00
2023-04-07T01:18:14.203Z,22.00
2023-04-07T01:23:53.001Z,25.10
2023-04-07T01:29:24.896Z,28.40
2023-04-07T01:34:30.503Z,22.50
2023-04-07T01:39:34.387Z,18.70
2023-04-07T01:49:41.507Z,19.60
2023-04-07T01:54:44.709Z,18.60
2023-04-07T01:59:47.527Z,17.80
2023-04-07T02:04:56.898Z,17.10
2023-04-07T02:10:03.994Z,14.90
2023-04-07T02:15:12.670Z,17.20
2023-04-07T02:20:17.639Z,17.90
2023-04-07T02:25:29.202Z,17.90
2023-04-07T02:30:32.418Z,18.00
2023-04-07T02:35:35.407Z,21.10
2023-04-07T02:40:38.243Z,18.20
2023-04-07T02:45:41.097Z,19.10
2023-04-07T02:50:44.060Z,16.00
2023-04-07T02:55:46.898Z,17.70
2023-04-07T03:00:50.864Z,17.20
2023-04-07T03:05:53.924Z,20.10
2023-04-07T03:10:56.964Z,16.70
2023-04-07T03:15:59.770Z,23.40
2023-04-07T03:21:02.996Z,21.70
2023-04-07T03:26:06.922Z,19.90
2023-04-07T03:36:14.039Z,18.10
2023-04-07T03:41:16.869Z,18.40
2023-04-07T03:46:21.463Z,22.80
2023-04-07T03:51:24.373Z,22.20
2023-04-07T03:56:28.887Z,20.50
2023-04-07T04:01:31.920Z,17.70
2023-04-07T04:06:34.828Z,18.50
2023-04-07T04:11:37.967Z,19.00
2023-04-07T04:16:40.913Z,18.20
2023-04-07T04:21:43.791Z,25.00
2023-04-07T04:26:46.739Z,23.30
2023-04-07T04:31:49.569Z,21.90
2023-04-07T04:36:52.475Z,17.90
2023-04-07T04:41:56.713Z,19.70
2023-04-07T04:46:59.674Z,23.50
2023-04-07T04:52:02.538Z,24.40
2023-04-07T04:57:05.363Z,28.50
2023-04-07T05:02:08.520Z,32.50
2023-04-07T05:07:11.552Z,27.50
2023-04-07T05:12:14.366Z,24.00
2023-04-07T05:17:17.201Z,27.90
2023-04-07T05:22:20.036Z,26.70
2023-04-07T05:27:22.945Z,21.00
2023-04-07T05:32:28.635Z,27.30
2023-04-07T05:37:31.525Z,25.60
2023-04-07T05:42:34.326Z,27.50
2023-04-07T05:47:37.349Z,22.90
2023-04-07T05:52:40.277Z,25.30
2023-04-07T05:57:43.111Z,26.70
2023-04-07T06:02:46.538Z,25.90
2023-04-07T06:07:49.486Z,25.80
2023-04-07T06:12:52.304Z,20.70
2023-04-07T06:17:55.139Z,21.20
2023-04-07T06:22:58.037Z,16.20
2023-04-07T06:28:01.319Z,22.40
2023-04-07T06:33:04.158Z,19.50
2023-04-07T06:38:08.130Z,19.00
2023-04-07T06:43:11.029Z,19.60
2023-04-07T06:48:13.834Z,21.00
2023-04-07T06:53:16.713Z,20.20
2023-04-07T06:58:19.537Z,20.40
2023-04-07T07:03:22.455Z,17.40
2023-04-07T07:08:26.996Z,20.90
2023-04-07T07:13:29.859Z,19.70
2023-04-07T07:18:32.697Z,21.50
2023-04-07T07:23:41.610Z,20.10
2023-04-07T07:28:44.446Z,23.60
2023-04-07T07:33:49.199Z,21.40
2023-04-07T07:38:52.298Z,19.80
2023-04-07T07:43:55.214Z,24.90
2023-04-07T07:48:58.000Z,23.60
2023-04-07T07:54:01.138Z,23.30
2023-04-07T07:59:06.583Z,22.70
2023-04-07T08:04:09.851Z,26.80
2023-04-07T08:09:12.942Z,25.10
2023-04-07T08:14:16.240Z,22.90
2023-04-07T08:19:19.172Z,20.60
2023-04-07T08:24:22.353Z,24.20
2023-04-07T08:29:25.381Z,60.30
2023-04-07T08:34:28.292Z,194.00
2023-04-07T08:39:31.145Z,32.10
2023-04-07T08:44:36.146Z,24.10
2023-04-07T08:49:42.263Z,21.80
2023-04-07T08:54:45.253Z,21.90
2023-04-07T08:59:51.502Z,22.20
2023-04-07T09:04:54.740Z,27.20
2023-04-07T09:09:57.569Z,26.70
2023-04-07T09:15:00.713Z,27.80
2023-04-07T09:20:04.935Z,42.60
2023-04-07T09:25:20.306Z,251.70
2023-04-07T09:30:23.624Z,285.40
2023-04-07T09:35:28.573Z,63.50
2023-04-07T09:40:32.687Z,122.20
2023-04-07T09:50:42.121Z,61.40
2023-04-07T09:55:45.319Z,31.60
2023-04-07T10:00:48.803Z,25.60
2023-04-07T10:05:52.598Z,25.40
2023-04-07T10:16:04.009Z,26.00
2023-04-07T10:21:09.267Z,27.10
2023-04-07T10:26:12.761Z,24.00
2023-04-07T10:31:16.909Z,29.60
2023-04-07T10:36:22.088Z,32.60
2023-04-07T10:41:41.886Z,51.60
2023-04-07T10:46:52.269Z,36.60
2023-04-07T10:52:25.038Z,27.80
2023-04-07T10:57:27.866Z,30.20
2023-04-07T11:02:32.720Z,57.10
2023-04-07T11:07:50.529Z,135.10
2023-04-07T11:13:05.420Z,34.80
2023-04-07T11:18:20.912Z,46.90
2023-04-07T11:23:25.378Z,43.40
2023-04-07T11:28:29.645Z,70.00
2023-04-07T11:33:34.941Z,95.90
2023-04-07T11:38:38.964Z,21.70
2023-04-07T11:43:42.867Z,21.70
2023-04-07T11:48:47.253Z,39.10
2023-04-07T11:53:56.987Z,30.70
2023-04-07T11:59:00.055Z,24.90
2023-04-07T12:04:06.555Z,19.50
2023-04-07T12:09:32.384Z,27.20
2023-04-07T12:14:36.598Z,23.90
2023-04-07T12:19:39.873Z,19.70
2023-04-07T12:24:42.760Z,29.20
2023-04-07T12:29:45.541Z,20.30
2023-04-07T12:34:48.341Z,38.40
2023-04-07T12:39:51.185Z,30.80
2023-04-07T12:44:54.007Z,144.60
2023-04-07T12:49:56.820Z,31.10
2023-04-07T12:54:59.782Z,39.90
2023-04-07T13:00:02.633Z,49.30
2023-04-07T13:05:06.031Z,53.20
2023-04-07T13:10:09.756Z,17.70
2023-04-07T13:20:19.521Z,21.90
2023-04-07T13:25:23.770Z,12.10
2023-04-07T13:30:27.484Z,15.40
2023-04-07T13:40:38.747Z,18.60
2023-04-07T13:45:42.096Z,21.50
2023-04-07T13:50:45.044Z,18.00
2023-04-07T13:55:47.844Z,20.80
2023-04-07T14:00:50.753Z,23.90
2023-04-07T14:05:53.846Z,25.00
2023-04-07T14:10:56.671Z,20.50
2023-04-07T14:15:59.542Z,108.70
2023-04-07T14:21:03.347Z,19.90
2023-04-07T14:31:15.802Z,38.50
2023-04-07T14:36:18.806Z,22.50
2023-04-07T14:41:21.822Z,79.80
2023-04-07T14:46:26.711Z,30.90
2023-04-07T14:51:30.278Z,24.20
2023-04-07T14:56:33.070Z,23.20
2023-04-07T15:01:36.254Z,24.00
2023-04-07T15:06:43.051Z,22.00
2023-04-07T15:11:46.222Z,26.20
2023-04-07T15:16:50.467Z,31.80
2023-04-07T15:21:53.288Z,58.30
2023-04-07T15:26:56.193Z,32.70
2023-04-07T15:31:59.123Z,46.10
2023-04-07T15:37:04.081Z,87.70
2023-04-07T15:42:12.802Z,81.20
2023-04-07T15:47:15.706Z,97.30
2023-04-07T15:52:18.564Z,89.10
2023-04-07T15:57:22.194Z,226.10
2023-04-07T16:02:25.217Z,261.20
2023-04-07T16:07:28.221Z,53.50
2023-04-07T16:12:34.340Z,192.60
2023-04-07T16:17:40.573Z,91.80
2023-04-07T16:22:48.148Z,57.10
2023-04-07T16:27:53.057Z,83.30
2023-04-07T16:32:56.046Z,45.80
2023-04-07T16:38:04.698Z,98.20
2023-04-07T16:43:09.157Z,41.60
2023-04-07T16:48:11.987Z,105.40
2023-04-07T16:53:14.797Z,51.90
2023-04-07T16:58:19.182Z,50.60
2023-04-07T17:03:22.292Z,106.50
2023-04-07T17:08:27.043Z,326.00
2023-04-07T17:13:29.845Z,433.00
2023-04-07T17:18:34.063Z,191.20
2023-04-07T17:23:37.455Z,294.50
2023-04-07T17:28:40.405Z,251.90
2023-04-07T17:33:43.255Z,348.20
2023-04-07T17:38:46.119Z,307.40
2023-04-07T17:43:49.086Z,329.40
2023-04-07T17:48:52.316Z,165.50
2023-04-07T17:53:56.685Z,106.40
2023-04-07T17:58:59.611Z,132.50
2023-04-07T18:04:04.425Z,370.60
2023-04-07T18:09:10.203Z,206.00
2023-04-07T18:14:13.071Z,231.50
2023-04-07T18:19:16.683Z,59.40
2023-04-07T18:24:20.735Z,81.00
2023-04-07T18:29:23.838Z,95.80
2023-04-07T18:34:26.805Z,75.30
2023-04-07T18:39:30.105Z,70.10
2023-04-07T18:44:32.902Z,99.70
2023-04-07T18:49:36.349Z,72.80
2023-04-07T18:54:39.177Z,61.50
2023-04-07T18:59:42.037Z,54.60
2023-04-07T19:04:44.825Z,52.70
2023-04-07T19:09:51.230Z,51.00
2023-04-07T19:14:54.071Z,54.60
2023-04-07T19:19:56.924Z,46.60
2023-04-07T19:24:59.783Z,71.00
2023-04-07T19:30:02.803Z,56.70
2023-04-07T19:35:06.577Z,134.50
2023-04-07T19:45:12.832Z,65.90
2023-04-07T19:50:15.767Z,87.50
2023-04-07T19:55:21.942Z,97.10
2023-04-07T20:00:24.906Z,263.60
2023-04-07T20:05:27.762Z,147.70
2023-04-07T20:10:30.880Z,508.40
2023-04-07T20:15:33.719Z,235.70
2023-04-07T20:20:36.976Z,273.40
2023-04-07T20:25:39.872Z,170.30
2023-04-07T20:30:42.707Z,210.40
2023-04-07T20:35:46.468Z,321.00
2023-04-07T20:40:49.366Z,137.20
2023-04-07T20:45:52.595Z,353.30
2023-04-07T20:50:55.477Z,65.10
2023-04-07T20:56:00.717Z,92.50
2023-04-07T21:01:03.618Z,544.70
2023-04-07T21:06:07.116Z,335.20
2023-04-07T21:11:09.921Z,339.60
2023-04-07T21:16:12.767Z,238.80
2023-04-07T21:21:15.600Z,436.80
2023-04-07T21:26:18.992Z,283.40
2023-04-07T21:31:23.887Z,272.70
2023-04-07T21:36:27.165Z,310.60
2023-04-07T21:41:30.055Z,265.90
2023-04-07T21:46:33.268Z,78.10
2023-04-07T21:51:37.486Z,55.70
2023-04-07T21:56:40.913Z,37.40
2023-04-07T22:01:46.151Z,54.70
2023-04-07T22:06:49.950Z,81.00
2023-04-07T22:16:56.639Z,111.20
2023-04-07T22:21:59.441Z,67.10
2023-04-07T22:27:02.399Z,91.70
2023-04-07T22:32:05.789Z,99.60
2023-04-07T22:37:08.715Z,32.60
2023-04-07T22:42:11.527Z,96.80
2023-04-07T22:47:14.391Z,91.80
2023-04-07T22:52:17.302Z,64.40
2023-04-07T22:57:20.531Z,33.30
2023-04-07T23:02:23.430Z,39.70
2023-04-07T23:07:27.154Z,32.60
2023-04-07T23:12:30.354Z,26.20
2023-04-07T23:17:33.431Z,22.90
2023-04-07T23:22:36.268Z,25.60
2023-04-07T23:27:39.097Z,23.60
2023-04-07T23:32:42.334Z,35.40
2023-04-07T23:37:45.252Z,24.50
2023-04-07T23:42:48.114Z,19.10
2023-04-07T23:47:51.024Z,25.50
2023-04-07T23:52:55.743Z,23.80
2023-04-07T23:57:58.883Z,26.60
